Time;durP1;ratioP1;P1;durP2;ratioP2;P2;SDS_P1;SDS_P2;PMS_P1;PMS_P2;Temp;Humidity;BMP_temperature;BMP_pressure;BME280_temperature;BME280_humidity;BME280_pressure;Samples;Min_cycle;Max_cycle;Signal;HPM_P1;HPM_P2
2022/01/08 00:00:22;;;;;;;3.58;1.80;;;4.00;99.90;;;;;;5033978;28;20254;-68
2022/01/08 00:02:50;;;;;;;1.65;1.55;;;4.00;99.90;;;;;;5034298;28;20296;-68
2022/01/08 00:05:18;;;;;;;1.75;1.40;;;4.00;99.90;;;;;;5033597;28;20224;-68
2022/01/08 00:07:46;;;;;;;1.90;1.60;;;4.00;99.90;;;;;;5034077;28;20307;-68
2022/01/08 00:10:13;;;;;;;1.30;1.20;;;4.00;99.90;;;;;;5033909;28;20227;-68
2022/01/08 00:12:40;;;;;;;2.08;1.60;;;4.00;99.90;;;;;;5033673;28;20699;-68
2022/01/08 00:15:08;;;;;;;3.80;1.65;;;3.90;99.90;;;;;;5033766;28;20204;-68
2022/01/08 00:17:36;;;;;;;2.65;2.00;;;3.90;99.90;;;;;;5033751;28;20224;-68
2022/01/08 00:20:05;;;;;;;2.22;2.03;;;3.90;99.90;;;;;;5033462;28;20210;-69
2022/01/08 00:22:32;;;;;;;1.90;1.80;;;4.00;99.90;;;;;;5033848;28;20203;-68
2022/01/08 00:25:00;;;;;;;2.28;2.17;;;4.00;99.90;;;;;;5033757;28;20214;-68
2022/01/08 00:27:27;;;;;;;3.65;2.10;;;4.00;99.90;;;;;;5033788;28;20638;-68
2022/01/08 00:29:54;;;;;;;2.47;2.10;;;4.10;99.90;;;;;;5033934;28;20204;-68
2022/01/08 00:32:21;;;;;;;2.45;1.92;;;4.10;99.90;;;;;;5033832;28;20208;-68
2022/01/08 00:34:48;;;;;;;2.83;2.40;;;4.00;99.90;;;;;;5033622;28;20303;-68
2022/01/08 00:37:15;;;;;;;2.45;2.25;;;4.10;99.90;;;;;;5033665;28;20224;-68
2022/01/08 00:39:41;;;;;;;2.75;2.50;;;4.10;99.90;;;;;;5033500;28;20207;-68
2022/01/08 00:42:10;;;;;;;3.03;2.38;;;4.20;99.90;;;;;;5033590;28;20238;-68
2022/01/08 00:44:36;;;;;;;2.70;2.50;;;4.20;99.90;;;;;;5033449;28;20590;-68
2022/01/08 00:47:04;;;;;;;2.90;2.45;;;4.20;99.90;;;;;;5033531;28;20204;-68
2022/01/08 00:49:30;;;;;;;3.70;2.92;;;4.30;99.90;;;;;;5033267;28;20295;-68
2022/01/08 00:51:57;;;;;;;2.97;2.67;;;4.30;99.90;;;;;;5033506;28;20204;-68
2022/01/08 00:54:24;;;;;;;3.45;2.70;;;4.30;99.90;;;;;;5033232;28;20228;-68
2022/01/08 00:56:51;;;;;;;2.65;2.38;;;4.30;99.90;;;;;;5033427;28;20286;-68
2022/01/08 00:59:19;;;;;;;2.85;2.55;;;4.30;99.90;;;;;;5036814;28;20200;-68
2022/01/08 01:01:46;;;;;;;3.35;2.95;;;4.40;99.90;;;;;;5037238;28;20204;-68
2022/01/08 01:04:13;;;;;;;2.83;2.58;;;4.40;99.90;;;;;;5037101;28;20315;-68
2022/01/08 01:06:40;;;;;;;3.67;2.95;;;4.50;99.90;;;;;;5036739;28;20294;-68
2022/01/08 01:09:07;;;;;;;3.83;3.08;;;4.50;99.90;;;;;;5037111;28;20247;-68
2022/01/08 01:11:34;;;;;;;3.05;2.80;;;4.50;99.90;;;;;;5036863;28;20565;-68
2022/01/08 01:14:01;;;;;;;2.72;2.53;;;4.50;99.90;;;;;;5036936;28;20706;-68
2022/01/08 01:16:29;;;;;;;3.15;2.88;;;4.60;99.90;;;;;;5036849;28;20298;-68
2022/01/08 01:18:58;;;;;;;2.67;2.30;;;4.60;99.90;;;;;;5036752;28;20220;-68
2022/01/08 01:21:24;;;;;;;2.90;2.67;;;4.60;99.90;;;;;;5036893;28;20613;-68
2022/01/08 01:23:52;;;;;;;5.35;2.65;;;4.70;99.90;;;;;;5036473;28;20614;-68
2022/01/08 01:26:23;;;;;;;3.85;3.45;;;4.70;99.90;;;;;;5036156;28;20207;-68
2022/01/08 01:28:56;;;;;;;3.42;3.13;;;4.70;99.90;;;;;;5036590;28;20231;-68
2022/01/08 01:42:51;;;;;;;3.72;3.28;;;4.60;99.90;;;;;;5036549;28;20187;-68
2022/01/08 01:48:01;;;;;;;4.93;3.33;;;4.40;99.90;;;;;;5036399;28;20693;-68
2022/01/08 01:50:29;;;;;;;3.30;3.00;;;4.40;99.90;;;;;;5036140;28;20299;-68
2022/01/08 01:52:56;;;;;;;3.55;3.25;;;4.40;99.90;;;;;;5036178;28;20208;-68
2022/01/08 01:55:23;;;;;;;3.42;3.10;;;4.40;99.90;;;;;;5035715;28;20291;-68
2022/01/08 01:57:51;;;;;;;3.30;3.00;;;4.30;99.90;;;;;;5036044;28;20228;-68
2022/01/08 02:00:18;;;;;;;4.03;3.50;;;4.30;99.90;;;;;;5035868;28;20212;-68
2022/01/08 02:02:45;;;;;;;4.40;2.80;;;4.30;99.90;;;;;;5035924;28;20206;-68
2022/01/08 02:05:12;;;;;;;3.35;3.05;;;4.20;99.90;;;;;;5035658;28;20227;-68
2022/01/08 02:07:40;;;;;;;3.20;2.90;;;4.20;99.90;;;;;;5035554;28;20224;-68
2022/01/08 02:10:08;;;;;;;3.63;3.08;;;4.20;99.90;;;;;;5035851;28;20232;-68
2022/01/08 02:12:35;;;;;;;3.30;3.00;;;4.20;99.90;;;;;;5035771;28;20200;-68
2022/01/08 02:15:03;;;;;;;4.03;2.78;;;4.10;99.90;;;;;;5035579;28;20295;-68
2022/01/08 02:17:30;;;;;;;3.30;2.47;;;4.10;99.90;;;;;;5035738;28;20311;-68
2022/01/08 02:19:58;;;;;;;3.65;2.65;;;4.20;99.90;;;;;;5035476;28;20630;-68
2022/01/08 02:22:25;;;;;;;3.05;2.28;;;4.20;99.90;;;;;;5035431;28;20548;-68
2022/01/08 02:24:52;;;;;;;3.75;2.42;;;4.20;99.90;;;;;;5035373;28;20769;-68
2022/01/08 02:27:19;;;;;;;2.95;2.53;;;4.20;99.90;;;;;;5035264;28;20662;-68
2022/01/08 02:29:46;;;;;;;2.60;2.40;;;4.20;99.90;;;;;;5035557;28;20210;-68
2022/01/08 02:32:15;;;;;;;2.30;1.95;;;4.20;99.90;;;;;;5035357;28;20210;-68
2022/01/08 02:34:44;;;;;;;3.17;2.30;;;4.30;99.90;;;;;;5035281;28;20215;-68
2022/01/08 02:37:12;;;;;;;4.05;2.00;;;4.30;99.90;;;;;;5035311;28;20207;-68
2022/01/08 02:39:41;;;;;;;2.85;2.40;;;4.40;99.90;;;;;;5035429;28;20203;-68
2022/01/08 02:42:11;;;;;;;3.35;2.70;;;4.50;99.90;;;;;;5035336;28;20257;-68
2022/01/08 02:44:38;;;;;;;2.95;2.20;;;4.50;99.90;;;;;;5035606;28;20579;-68
2022/01/08 02:47:05;;;;;;;2.15;1.90;;;4.60;99.90;;;;;;5034990;28;20210;-68
2022/01/08 02:49:34;;;;;;;2.55;1.77;;;4.50;99.90;;;;;;5035031;28;20204;-68
2022/01/08 02:52:01;;;;;;;2.22;2.00;;;4.60;99.90;;;;;;5034871;28;20212;-68
2022/01/08 02:54:29;;;;;;;1.83;1.60;;;4.70;99.90;;;;;;5034862;28;20200;-68
2022/01/08 02:56:56;;;;;;;2.28;2.05;;;4.70;99.90;;;;;;5034910;28;20215;-68
2022/01/08 02:59:23;;;;;;;2.50;2.30;;;4.70;99.90;;;;;;5035068;28;20286;-68
2022/01/08 03:01:50;;;;;;;2.15;2.00;;;4.70;99.90;;;;;;5034941;28;20637;-68
2022/01/08 03:04:17;;;;;;;2.28;1.70;;;4.70;99.90;;;;;;5034756;28;20613;-68
2022/01/08 03:06:44;;;;;;;2.72;2.10;;;4.60;99.90;;;;;;5034634;28;20211;-68
2022/01/08 03:09:12;;;;;;;3.38;1.75;;;4.50;99.90;;;;;;5034730;28;20274;-68
2022/01/08 03:11:41;;;;;;;1.85;1.52;;;4.60;99.90;;;;;;5034698;28;20239;-68
2022/01/08 03:14:08;;;;;;;2.70;1.42;;;4.60;99.90;;;;;;5034534;28;20625;-68
2022/01/08 03:16:35;;;;;;;2.55;2.20;;;4.60;99.90;;;;;;5034526;28;20600;-68
2022/01/08 03:19:08;;;;;;;1.60;1.50;;;4.70;99.90;;;;;;5035454;28;20224;-68
2022/01/08 03:21:38;;;;;;;2.92;1.92;;;4.80;99.90;;;;;;5033847;28;20246;-68
2022/01/08 03:24:07;;;;;;;1.60;1.50;;;4.90;99.90;;;;;;5034292;28;20598;-68
2022/01/08 03:26:34;;;;;;;2.15;1.50;;;4.90;99.90;;;;;;5034071;28;20274;-68
2022/01/08 03:29:02;;;;;;;2.40;1.70;;;4.80;99.90;;;;;;5034483;28;20228;-68
2022/01/08 03:31:29;;;;;;;2.03;1.65;;;4.90;99.90;;;;;;5034542;28;20310;-68
2022/01/08 03:33:56;;;;;;;4.68;1.65;;;4.90;99.90;;;;;;5034406;28;20298;-68
2022/01/08 03:36:24;;;;;;;1.42;1.30;;;4.80;99.90;;;;;;5034103;28;20208;-68
2022/01/08 03:38:52;;;;;;;1.65;1.55;;;4.80;99.90;;;;;;5034392;28;20238;-68
2022/01/08 03:41:20;;;;;;;2.22;2.08;;;4.80;99.90;;;;;;5034437;28;20200;-68
2022/01/08 03:43:47;;;;;;;2.10;1.60;;;4.70;99.90;;;;;;5034300;28;20244;-68
2022/01/08 03:46:18;;;;;;;3.40;1.73;;;4.80;99.90;;;;;;5033664;28;20226;-68
2022/01/08 03:48:47;;;;;;;2.30;1.80;;;4.70;99.90;;;;;;5034218;28;20235;-68
2022/01/08 03:51:15;;;;;;;2.15;1.83;;;4.60;99.90;;;;;;5034008;28;20204;-68
2022/01/08 03:53:42;;;;;;;2.70;2.17;;;4.60;99.90;;;;;;5033974;28;20566;-68
2022/01/08 03:56:09;;;;;;;2.15;1.85;;;4.60;99.90;;;;;;5034109;28;20286;-68
2022/01/08 03:58:36;;;;;;;5.05;2.05;;;4.50;99.90;;;;;;5034129;28;20224;-68
2022/01/08 04:01:03;;;;;;;2.30;2.15;;;4.50;99.90;;;;;;5033767;28;20231;-68
2022/01/08 04:03:31;;;;;;;2.40;2.20;;;4.50;99.90;;;;;;5033836;28;20215;-68
2022/01/08 04:05:58;;;;;;;2.58;2.20;;;4.50;99.90;;;;;;5033866;28;20220;-68
2022/01/08 04:08:25;;;;;;;2.53;2.33;;;4.50;99.90;;;;;;5034041;28;20230;-68
2022/01/08 04:10:52;;;;;;;2.90;2.70;;;4.50;99.90;;;;;;5033892;28;20208;-68
2022/01/08 04:13:22;;;;;;;3.10;2.65;;;4.50;99.90;;;;;;5033916;28;20231;-68
2022/01/08 04:15:53;;;;;;;3.25;2.95;;;4.50;99.90;;;;;;5033936;28;20200;-68
2022/01/08 04:18:20;;;;;;;5.30;3.60;;;4.50;99.90;;;;;;5033836;28;20267;-68
2022/01/08 04:21:06;;;;;;;3.33;2.72;;;4.50;99.90;;;;;;5033571;28;20204;-68
2022/01/08 04:23:33;;;;;;;4.25;3.60;;;4.50;99.90;;;;;;5033414;28;20235;-68
2022/01/08 04:26:00;;;;;;;3.38;3.05;;;4.50;99.90;;;;;;5033247;28;20754;-68
2022/01/08 04:28:26;;;;;;;3.67;3.13;;;4.50;99.90;;;;;;5034241;28;20311;-68
2022/01/08 04:30:53;;;;;;;3.88;3.38;;;4.50;99.90;;;;;;5033902;28;20204;-68
2022/01/08 04:33:20;;;;;;;3.95;3.20;;;4.60;99.90;;;;;;5035541;28;20238;-68
2022/01/08 04:35:48;;;;;;;2.70;2.50;;;4.60;99.90;;;;;;5037281;28;20291;-67
2022/01/08 04:38:15;;;;;;;4.22;3.17;;;4.60;99.90;;;;;;5037242;28;20269;-68
2022/01/08 04:40:42;;;;;;;3.90;3.53;;;4.60;99.90;;;;;;5037328;28;20216;-68
2022/01/08 04:43:09;;;;;;;4.38;3.80;;;4.60;99.90;;;;;;5037325;28;20210;-68
2022/01/08 04:45:36;;;;;;;3.60;2.85;;;4.60;99.90;;;;;;5037121;28;20220;-68
2022/01/08 04:48:03;;;;;;;3.53;3.10;;;4.50;99.90;;;;;;5037413;28;20224;-68
2022/01/08 04:50:30;;;;;;;3.80;3.35;;;4.50;99.90;;;;;;5036618;28;20693;-68
2022/01/08 04:52:59;;;;;;;3.90;3.28;;;4.50;99.90;;;;;;5036909;28;20290;-68
2022/01/08 04:55:26;;;;;;;3.95;2.78;;;4.40;99.90;;;;;;5037211;28;20200;-68
2022/01/08 04:57:53;;;;;;;5.72;4.45;;;4.40;99.90;;;;;;5037096;28;20226;-68
2022/01/08 05:00:22;;;;;;;3.10;2.80;;;4.30;99.90;;;;;;5037171;28;20294;-68
2022/01/08 05:02:49;;;;;;;3.13;2.80;;;4.30;99.90;;;;;;5037592;28;20234;-68
2022/01/08 05:05:16;;;;;;;3.05;2.40;;;4.40;99.90;;;;;;5036868;28;20581;-68
2022/01/08 05:07:42;;;;;;;3.22;2.70;;;4.30;99.90;;;;;;5037357;28;20255;-68
2022/01/08 05:10:11;;;;;;;3.40;2.90;;;4.30;99.90;;;;;;5037038;28;20310;-68
2022/01/08 05:12:38;;;;;;;2.60;2.40;;;4.30;99.90;;;;;;5037266;28;20215;-68
2022/01/08 05:15:06;;;;;;;2.40;2.25;;;4.30;99.90;;;;;;5036610;28;20238;-68
2022/01/08 05:17:35;;;;;;;3.80;2.85;;;4.30;99.90;;;;;;5036847;28;20224;-68
2022/01/08 05:20:04;;;;;;;2.83;2.30;;;4.20;99.90;;;;;;5036362;28;20211;-68
2022/01/08 05:22:42;;;;;;;2.50;2.17;;;4.20;99.90;;;;;;5036411;28;20200;-68
2022/01/08 05:25:11;;;;;;;3.45;2.70;;;4.20;99.90;;;;;;5036010;28;20319;-68
2022/01/08 05:27:38;;;;;;;2.30;2.10;;;4.10;99.90;;;;;;5035905;28;20800;-68
2022/01/08 05:30:06;;;;;;;2.45;2.20;;;4.10;99.90;;;;;;5036205;28;20204;-68
2022/01/08 05:32:34;;;;;;;2.33;2.13;;;4.10;99.90;;;;;;5036088;28;20693;-68
2022/01/08 05:35:01;;;;;;;2.83;2.13;;;4.10;99.90;;;;;;5036396;28;20200;-68
2022/01/08 05:37:28;;;;;;;2.40;2.20;;;4.00;99.90;;;;;;5036421;28;20581;-68
2022/01/08 05:39:55;;;;;;;2.47;2.08;;;4.10;99.90;;;;;;5037011;28;20211;-68
2022/01/08 05:42:23;;;;;;;3.20;2.25;;;4.10;99.90;;;;;;5036435;28;20262;-68
2022/01/08 05:44:50;;;;;;;3.30;2.40;;;4.10;99.90;;;;;;5035947;28;20211;-68
2022/01/08 05:47:20;;;;;;;2.72;2.30;;;4.10;99.90;;;;;;5036264;28;20582;-68
2022/01/08 05:49:47;;;;;;;3.15;2.00;;;4.10;99.90;;;;;;5036107;28;20208;-68
2022/01/08 05:52:14;;;;;;;1.90;1.80;;;4.10;99.90;;;;;;5036278;28;20298;-68
2022/01/08 05:54:42;;;;;;;2.10;1.90;;;4.10;99.90;;;;;;5035949;28;20206;-69
2022/01/08 05:57:09;;;;;;;2.10;1.90;;;4.20;99.90;;;;;;5036322;28;20204;-68
2022/01/08 05:59:37;;;;;;;1.35;1.23;;;4.20;99.90;;;;;;5036434;28;20291;-68
2022/01/08 06:02:05;;;;;;;1.52;1.15;;;4.10;99.90;;;;;;5036368;28;20203;-68
2022/01/08 06:04:32;;;;;;;1.33;1.23;;;3.90;99.90;;;;;;5035632;28;20287;-67
2022/01/08 06:06:59;;;;;;;1.02;0.80;;;3.90;99.90;;;;;;5035403;28;20582;-68
2022/01/08 06:09:26;;;;;;;1.15;1.15;;;3.90;99.90;;;;;;5035490;28;20204;-68
2022/01/08 06:11:53;;;;;;;1.05;1.05;;;3.90;99.90;;;;;;5035318;28;20689;-68
2022/01/08 06:14:20;;;;;;;1.02;0.90;;;3.80;99.90;;;;;;5035363;28;20207;-68
2022/01/08 06:16:49;;;;;;;0.90;0.90;;;3.70;99.90;;;;;;5035092;28;20739;-68
2022/01/08 06:19:16;;;;;;;0.70;0.70;;;3.60;99.90;;;;;;5035259;28;20694;-68
2022/01/08 06:21:44;;;;;;;1.20;1.17;;;3.60;99.90;;;;;;5035236;28;20298;-68
2022/01/08 06:24:11;;;;;;;0.95;0.95;;;3.60;99.90;;;;;;5035209;28;20210;-68
2022/01/08 06:26:38;;;;;;;0.90;0.90;;;3.60;99.90;;;;;;5034584;28;20318;-68
2022/01/08 06:29:05;;;;;;;0.80;0.80;;;3.60;99.90;;;;;;5035029;28;20223;-68
2022/01/08 06:31:31;;;;;;;3.25;1.38;;;3.60;99.90;;;;;;5035936;28;20214;-68
2022/01/08 06:34:00;;;;;;;1.40;1.30;;;3.40;99.90;;;;;;5034973;28;20239;-68
2022/01/08 06:36:26;;;;;;;1.10;1.10;;;3.40;99.90;;;;;;5034680;28;20201;-68
2022/01/08 06:38:54;;;;;;;0.75;0.75;;;3.40;99.90;;;;;;5034874;28;20322;-68
2022/01/08 06:41:20;;;;;;;0.98;0.98;;;3.40;99.90;;;;;;5034901;28;20212;-68
2022/01/08 06:43:47;;;;;;;1.05;1.05;;;3.40;99.90;;;;;;5034881;28;20295;-68
2022/01/08 06:46:14;;;;;;;0.75;0.75;;;3.40;99.90;;;;;;5034432;28;20224;-68
2022/01/08 06:48:41;;;;;;;0.90;0.90;;;3.40;99.90;;;;;;5034722;28;20226;-68
2022/01/08 06:51:10;;;;;;;1.20;1.20;;;3.40;99.90;;;;;;5034491;28;20231;-68
2022/01/08 06:53:37;;;;;;;1.08;1.02;;;3.40;99.90;;;;;;5034567;28;20204;-68
2022/01/08 06:56:05;;;;;;;1.13;1.00;;;3.40;99.90;;;;;;5033849;28;20291;-67
2022/01/08 06:58:32;;;;;;;1.30;1.20;;;3.40;99.90;;;;;;5034415;28;20232;-68
2022/01/08 07:00:59;;;;;;;1.30;1.20;;;3.40;99.90;;;;;;5034858;28;20295;-68
2022/01/08 07:03:26;;;;;;;1.58;1.40;;;3.40;99.90;;;;;;5034867;28;20200;-68
2022/01/08 07:05:53;;;;;;;1.30;1.20;;;3.30;99.90;;;;;;5034386;28;20291;-68
2022/01/08 07:08:21;;;;;;;1.40;1.30;;;3.40;99.90;;;;;;5035035;28;20220;-68
2022/01/08 07:10:48;;;;;;;1.40;1.30;;;3.30;99.90;;;;;;5035029;28;20206;-68
2022/01/08 07:13:15;;;;;;;0.98;0.98;;;3.30;99.90;;;;;;5034999;28;20298;-68
2022/01/08 07:15:42;;;;;;;1.75;1.65;;;3.20;99.90;;;;;;5034215;28;20202;-68
2022/01/08 07:18:08;;;;;;;1.05;0.95;;;3.20;99.90;;;;;;5034097;28;20230;-68
2022/01/08 07:20:35;;;;;;;1.27;0.95;;;3.30;99.90;;;;;;5034718;28;20204;-68
2022/01/08 07:23:02;;;;;;;1.73;1.40;;;3.30;99.90;;;;;;5035070;28;20306;-68
2022/01/08 07:25:30;;;;;;;1.50;1.40;;;3.30;99.90;;;;;;5034520;28;20207;-67
2022/01/08 07:27:57;;;;;;;1.58;1.13;;;3.40;99.90;;;;;;5034549;28;20238;-68
2022/01/08 07:30:24;;;;;;;1.50;1.27;;;3.30;99.90;;;;;;5034603;28;20214;-68
2022/01/08 07:32:52;;;;;;;2.15;1.95;;;3.30;99.90;;;;;;5034821;28;20239;-68
2022/01/08 07:35:22;;;;;;;2.92;2.20;;;3.30;99.90;;;;;;5034159;28;20204;-68
2022/01/08 07:37:50;;;;;;;3.35;2.42;;;3.30;99.90;;;;;;5034243;28;20282;-68
2022/01/08 07:40:17;;;;;;;3.22;2.40;;;3.30;99.90;;;;;;5033936;28;20688;-68
2022/01/08 07:42:45;;;;;;;2.60;2.40;;;3.30;99.90;;;;;;5033853;28;20670;-68
2022/01/08 07:45:13;;;;;;;2.60;2.40;;;3.30;99.90;;;;;;5033694;28;20208;-68
2022/01/08 07:47:40;;;;;;;3.60;2.55;;;3.30;99.90;;;;;;5033672;28;20314;-68
2022/01/08 07:50:07;;;;;;;3.55;2.97;;;3.20;99.90;;;;;;5033893;28;20200;-68
2022/01/08 07:52:35;;;;;;;3.30;3.00;;;3.30;99.90;;;;;;5033837;28;20208;-68
2022/01/08 07:55:01;;;;;;;2.88;2.65;;;3.40;99.90;;;;;;5033307;28;20753;-68
2022/01/08 07:57:28;;;;;;;3.65;3.33;;;3.40;99.90;;;;;;5033582;28;20559;-68
2022/01/08 07:59:56;;;;;;;3.28;2.97;;;3.40;99.90;;;;;;5033685;28;20685;-68
2022/01/08 08:02:23;;;;;;;4.35;2.67;;;3.50;99.90;;;;;;5033744;28;20294;-68
2022/01/08 08:04:50;;;;;;;3.45;3.15;;;3.50;99.90;;;;;;5033364;28;20206;-68
2022/01/08 08:07:28;;;;;;;2.20;2.00;;;3.60;99.90;;;;;;5036611;28;20234;-68
2022/01/08 08:09:55;;;;;;;3.67;3.30;;;3.60;99.90;;;;;;5039897;28;20199;-68
2022/01/08 08:12:22;;;;;;;2.70;2.40;;;3.60;99.90;;;;;;5039825;28;20662;-68
2022/01/08 08:14:49;;;;;;;1.88;1.77;;;3.70;99.90;;;;;;5040047;28;20208;-68
2022/01/08 08:17:17;;;;;;;3.38;2.75;;;3.60;99.90;;;;;;5039935;28;20224;-68
2022/01/08 08:19:44;;;;;;;3.30;2.97;;;3.60;99.90;;;;;;5040097;28;20294;-68
2022/01/08 08:22:11;;;;;;;2.78;2.47;;;3.60;99.90;;;;;;5040055;28;20210;-68
2022/01/08 08:24:37;;;;;;;1.85;1.75;;;3.70;99.90;;;;;;5039754;28;20210;-68
2022/01/08 08:27:05;;;;;;;4.72;2.72;;;3.70;99.90;;;;;;5039605;28;20656;-68
2022/01/08 08:29:31;;;;;;;3.33;2.40;;;3.80;99.90;;;;;;5039719;28;20210;-68
2022/01/08 08:31:58;;;;;;;4.38;2.75;;;3.80;99.90;;;;;;5039952;28;20295;-68
2022/01/08 08:34:26;;;;;;;3.20;2.60;;;3.80;99.90;;;;;;5039420;28;20677;-68
2022/01/08 08:36:53;;;;;;;3.40;2.30;;;3.90;99.90;;;;;;5039630;28;20286;-68
2022/01/08 08:39:20;;;;;;;4.90;3.00;;;3.90;99.90;;;;;;5039864;28;20299;-68
2022/01/08 08:41:47;;;;;;;2.88;2.38;;;4.00;99.90;;;;;;5039868;28;20547;-68
2022/01/08 08:44:14;;;;;;;3.00;2.13;;;3.90;99.90;;;;;;5039543;28;20763;-68
2022/01/08 08:46:41;;;;;;;4.40;2.30;;;3.90;99.90;;;;;;5039504;28;20315;-68
2022/01/08 08:49:07;;;;;;;2.28;2.05;;;3.90;99.90;;;;;;5039436;28;20728;-68
2022/01/08 08:51:36;;;;;;;3.47;2.40;;;4.00;99.90;;;;;;5039597;28;20212;-68
2022/01/08 08:54:03;;;;;;;2.50;2.20;;;4.00;99.90;;;;;;5039703;28;20611;-68
2022/01/08 08:56:30;;;;;;;2.20;2.00;;;4.00;99.90;;;;;;5039423;28;20197;-68
2022/01/08 08:58:57;;;;;;;2.28;1.60;;;4.00;99.90;;;;;;5039344;28;20224;-68
2022/01/08 09:01:26;;;;;;;1.52;1.25;;;4.10;99.90;;;;;;5039443;28;20204;-68
2022/01/08 09:03:53;;;;;;;2.25;2.05;;;4.00;99.90;;;;;;5039675;28;20571;-68
2022/01/08 09:06:20;;;;;;;2.35;2.08;;;4.10;99.90;;;;;;5039537;28;20690;-68
2022/01/08 09:08:48;;;;;;;2.45;2.10;;;4.10;99.90;;;;;;5039976;28;20220;-68
2022/01/08 09:11:15;;;;;;;3.50;2.47;;;4.20;99.90;;;;;;5039835;28;20200;-68
2022/01/08 09:13:42;;;;;;;3.72;2.03;;;4.20;99.90;;;;;;5039812;28;20678;-68
2022/01/08 09:16:09;;;;;;;3.05;2.05;;;4.20;99.90;;;;;;5039906;28;20200;-68
2022/01/08 09:18:36;;;;;;;2.90;2.15;;;4.30;99.90;;;;;;5037712;28;20259;-68
2022/01/08 09:21:04;;;;;;;3.47;2.05;;;4.20;99.90;;;;;;5036825;28;20208;-68
2022/01/08 09:23:31;;;;;;;4.40;2.10;;;4.10;99.90;;;;;;5036630;28;20290;-68
2022/01/08 09:26:00;;;;;;;2.65;2.20;;;4.10;99.90;;;;;;5036400;28;20204;-68
2022/01/08 09:28:27;;;;;;;4.05;2.60;;;4.20;99.90;;;;;;5036776;28;20234;-68
2022/01/08 09:30:55;;;;;;;3.13;2.50;;;4.30;99.90;;;;;;5036726;28;20204;-68
2022/01/08 09:33:21;;;;;;;4.60;2.50;;;4.40;99.90;;;;;;5036575;28;20204;-68
2022/01/08 09:35:48;;;;;;;2.63;2.42;;;4.50;99.90;;;;;;5036350;28;20295;-68
2022/01/08 09:38:15;;;;;;;11.35;5.28;;;4.60;99.90;;;;;;5036633;28;20220;-68
2022/01/08 09:40:42;;;;;;;2.53;2.33;;;4.70;99.90;;;;;;5036320;28;20199;-68
2022/01/08 09:43:10;;;;;;;3.38;2.67;;;4.70;99.90;;;;;;5036260;28;20200;-68
2022/01/08 09:45:37;;;;;;;3.80;2.83;;;4.80;99.90;;;;;;5036156;28;20295;-68
2022/01/08 09:48:05;;;;;;;2.58;2.35;;;4.80;99.90;;;;;;5036266;28;20319;-68
2022/01/08 09:50:31;;;;;;;5.18;3.13;;;4.90;99.90;;;;;;5035975;28;20290;-68
2022/01/08 09:52:59;;;;;;;4.03;3.33;;;4.80;99.90;;;;;;5035806;28;20295;-68
2022/01/08 09:55:28;;;;;;;4.20;2.45;;;4.70;99.90;;;;;;5035486;28;20207;-68
2022/01/08 09:57:55;;;;;;;6.30;2.50;;;4.70;99.90;;;;;;5035742;28;20246;-68
2022/01/08 10:00:24;;;;;;;5.80;3.10;;;4.70;99.90;;;;;;5035782;28;20204;-68
2022/01/08 10:02:52;;;;;;;3.00;2.70;;;4.70;99.90;;;;;;5035807;28;20208;-68
2022/01/08 10:05:20;;;;;;;4.65;2.42;;;4.80;99.90;;;;;;5035386;28;20661;-68
2022/01/08 10:07:58;;;;;;;12.63;2.95;;;4.70;99.90;;;;;;5035427;28;20229;-68
2022/01/08 10:10:27;;;;;;;6.40;2.65;;;4.60;99.90;;;;;;5035719;28;20208;-68
2022/01/08 10:12:58;;;;;;;4.15;2.78;;;4.70;99.90;;;;;;5035474;28;20311;-68
2022/01/08 10:18:22;;;;;;;13.70;6.90;;;4.80;99.90;;;;;;5035448;28;20224;-68
2022/01/08 10:20:50;;;;;;;4.90;3.53;;;4.90;99.90;;;;;;5035199;28;20635;-68
2022/01/08 10:23:19;;;;;;;6.95;3.88;;;4.90;99.90;;;;;;5035521;28;20204;-68
2022/01/08 10:26:03;;;;;;;11.93;6.47;;;4.90;99.90;;;;;;5035070;28;20206;-68
2022/01/08 10:28:36;;;;;;;8.85;6.45;;;4.90;99.90;;;;;;5034783;28;20231;-68
2022/01/08 10:31:13;;;;;;;5.57;3.35;;;4.90;99.90;;;;;;5033954;28;20208;-68
2022/01/08 10:33:40;;;;;;;8.88;5.10;;;4.80;99.90;;;;;;5035146;28;20295;-68
2022/01/08 10:36:08;;;;;;;4.18;3.45;;;4.90;99.90;;;;;;5034632;28;20294;-68
2022/01/08 10:38:34;;;;;;;4.13;3.13;;;4.90;99.90;;;;;;5035072;28;20224;-68
2022/01/08 10:41:02;;;;;;;5.63;3.60;;;4.90;99.90;;;;;;5034769;28;20212;-68
2022/01/08 10:43:32;;;;;;;6.07;4.63;;;5.00;99.90;;;;;;5034653;28;20204;-68
2022/01/08 10:46:12;;;;;;;2.30;2.10;;;5.10;99.90;;;;;;5034408;28;20204;-68
2022/01/08 10:48:43;;;;;;;4.57;3.13;;;4.90;99.90;;;;;;5034504;28;20705;-68
2022/01/08 10:51:17;;;;;;;3.40;2.95;;;4.80;99.90;;;;;;5034461;28;20646;-68
2022/01/08 10:54:06;;;;;;;3.63;2.58;;;4.70;99.90;;;;;;5034732;28;20204;-68
2022/01/08 10:56:34;;;;;;;6.43;2.60;;;4.70;99.90;;;;;;5034462;28;20219;-68
2022/01/08 10:59:10;;;;;;;6.10;2.25;;;4.60;99.90;;;;;;5034531;28;20224;-68
2022/01/08 11:01:59;;;;;;;3.97;2.40;;;4.50;99.90;;;;;;5034660;28;20188;-68
2022/01/08 11:04:42;;;;;;;3.65;2.80;;;4.50;99.90;;;;;;5034656;28;20226;-67
2022/01/08 11:07:11;;;;;;;3.75;1.90;;;4.50;99.90;;;;;;5034422;28;20221;-68
2022/01/08 11:09:40;;;;;;;3.42;2.33;;;4.50;99.90;;;;;;5034160;28;20701;-68
2022/01/08 11:12:09;;;;;;;2.55;2.25;;;4.50;99.90;;;;;;5034125;28;20262;-68
2022/01/08 11:17:38;;;;;;;3.20;2.47;;;4.60;99.90;;;;;;5034145;28;20255;-68
2022/01/08 11:20:09;;;;;;;2.10;1.90;;;4.70;99.90;;;;;;5034180;28;20204;-68
2022/01/08 11:22:38;;;;;;;3.25;2.35;;;4.90;99.90;;;;;;5035051;28;20204;-68
2022/01/08 11:25:07;;;;;;;3.33;2.35;;;4.90;99.90;;;;;;5034235;28;20570;-68
2022/01/08 11:27:45;;;;;;;2.97;2.13;;;4.90;99.90;;;;;;5034219;28;20239;-68
2022/01/08 11:30:17;;;;;;;2.20;2.00;;;4.80;99.90;;;;;;5034468;28;20532;-68
2022/01/08 11:32:46;;;;;;;6.43;2.75;;;4.80;99.90;;;;;;5034193;28;20220;-68
2022/01/08 11:35:14;;;;;;;2.50;1.65;;;4.90;99.90;;;;;;5034109;28;20291;-68
2022/01/08 11:37:46;;;;;;;5.40;2.28;;;4.90;99.90;;;;;;5034265;28;20228;-68
2022/01/08 11:40:14;;;;;;;2.67;2.00;;;4.90;99.90;;;;;;5034264;28;20216;-68
2022/01/08 11:42:42;;;;;;;2.83;1.90;;;4.90;99.90;;;;;;5033705;28;20283;-68
2022/01/08 11:45:13;;;;;;;3.38;2.40;;;5.00;99.90;;;;;;5033731;28;20295;-68
2022/01/08 11:47:47;;;;;;;5.00;2.63;;;5.10;99.90;;;;;;5034116;28;20228;-68
2022/01/08 11:50:18;;;;;;;4.10;2.40;;;5.10;99.90;;;;;;5034132;28;20207;-68
2022/01/08 11:52:45;;;;;;;10.13;3.40;;;5.20;99.90;;;;;;5034251;28;20298;-68
2022/01/08 11:55:12;;;;;;;4.63;2.53;;;5.30;99.90;;;;;;5033854;28;20214;-68
2022/01/08 11:57:39;;;;;;;4.25;2.38;;;5.30;99.90;;;;;;5033968;28;20226;-68
2022/01/08 12:00:09;;;;;;;2.78;2.30;;;5.30;99.90;;;;;;5033950;28;20298;-68
2022/01/08 12:02:41;;;;;;;3.95;1.90;;;5.40;99.90;;;;;;5034087;28;20212;-68
2022/01/08 12:05:12;;;;;;;2.90;2.15;;;5.30;99.90;;;;;;5033630;28;20579;-68
2022/01/08 12:07:44;;;;;;;4.78;2.53;;;5.40;99.90;;;;;;5033992;28;20315;-68
2022/01/08 12:10:17;;;;;;;6.25;2.20;;;5.40;99.90;;;;;;5034067;28;20275;-68
2022/01/08 12:12:47;;;;;;;6.18;2.03;;;5.50;99.90;;;;;;5033793;28;20294;-68
2022/01/08 12:15:15;;;;;;;2.35;2.15;;;5.50;99.90;;;;;;5033710;28;20200;-68
2022/01/08 12:17:59;;;;;;;3.22;1.90;;;5.60;99.90;;;;;;5033691;28;20223;-68
2022/01/08 12:20:41;;;;;;;2.58;2.38;;;5.70;99.90;;;;;;5034294;28;20211;-68
2022/01/08 12:23:28;;;;;;;2.95;2.28;;;5.60;99.90;;;;;;5033867;28;20279;-68
2022/01/08 12:25:55;;;;;;;2.05;1.80;;;5.60;99.90;;;;;;5033726;28;20207;-68
2022/01/08 12:28:45;;;;;;;2.20;1.80;;;5.60;99.90;;;;;;5033680;28;20418;-68
2022/01/08 12:31:28;;;;;;;4.55;2.00;;;5.60;99.90;;;;;;5033591;28;20189;-68
2022/01/08 12:34:23;;;;;;;2.67;2.20;;;5.70;99.90;;;;;;5033393;28;20204;-68
2022/01/08 12:36:56;;;;;;;3.55;2.40;;;5.70;99.90;;;;;;5033120;28;20208;-68
2022/01/08 12:39:25;;;;;;;2.70;2.20;;;5.80;99.90;;;;;;5033693;28;20627;-68
2022/01/08 12:42:26;;;;;;;3.30;2.22;;;5.90;99.90;;;;;;5033362;28;20212;-68
2022/01/08 12:44:58;;;;;;;3.30;2.65;;;5.70;99.90;;;;;;5033404;28;20200;-68
2022/01/08 12:48:01;;;;;;;3.15;2.60;;;5.60;99.90;;;;;;5033451;28;20238;-68
2022/01/08 12:50:32;;;;;;;3.33;2.70;;;5.50;99.90;;;;;;5030385;28;20203;-68
2022/01/08 12:53:19;;;;;;;4.00;2.97;;;5.40;99.90;;;;;;5033590;28;20192;-68
2022/01/08 12:56:18;;;;;;;4.35;2.28;;;5.50;99.90;;;;;;5037562;28;20246;-69
2022/01/08 12:58:48;;;;;;;2.53;2.33;;;5.60;99.90;;;;;;5037167;28;20706;-68
2022/01/08 13:01:16;;;;;;;3.47;2.72;;;5.60;99.90;;;;;;5037045;28;20295;-68
2022/01/08 13:03:46;;;;;;;3.10;2.50;;;5.70;99.90;;;;;;5037061;28;20208;-68
2022/01/08 13:06:28;;;;;;;2.67;2.40;;;5.70;99.90;;;;;;5036748;28;20216;-68
2022/01/08 13:08:58;;;;;;;5.15;3.30;;;5.70;99.90;;;;;;5036523;28;20712;-68
2022/01/08 13:11:28;;;;;;;3.17;2.88;;;5.80;99.90;;;;;;5037022;28;20283;-68
2022/01/08 13:13:57;;;;;;;3.28;2.50;;;5.90;99.90;;;;;;5036596;28;20212;-68
2022/01/08 13:16:27;;;;;;;2.85;2.50;;;5.80;99.90;;;;;;5036397;28;20208;-68
2022/01/08 13:18:55;;;;;;;1.92;1.83;;;5.90;99.90;;;;;;5036523;28;20259;-68
2022/01/08 13:21:26;;;;;;;3.03;2.42;;;5.90;99.90;;;;;;5036314;28;20570;-68
2022/01/08 13:23:53;;;;;;;1.60;1.50;;;6.00;99.90;;;;;;5037008;28;20192;-68
2022/01/08 13:26:33;;;;;;;2.35;2.15;;;6.00;99.90;;;;;;5036811;28;20270;-69